Time;durP1;ratioP1;P1;durP2;ratioP2;P2;SDS_P1;SDS_P2;PMS_P1;PMS_P2;Temp;Humidity;BMP_temperature;BMP_pressure;BME280_temperature;BME280_humidity;BME280_pressure;Samples;Min_cycle;Max_cycle;Signal;HPM_P1;HPM_P2
2023/04/05 00:01:31;;;;;;;7.40;5.28;;;-0.60;32.00;;;;;;5027772;28;47331;-63
2023/04/05 00:03:58;;;;;;;8.52;5.35;;;-0.60;32.10;;;;;;5023638;28;46463;-64
2023/04/05 00:06:28;;;;;;;7.75;5.07;;;-0.60;32.40;;;;;;5030654;28;46393;-64
2023/04/05 00:08:58;;;;;;;7.93;5.35;;;-0.70;32.70;;;;;;5027400;28;46450;-66
2023/04/05 00:11:31;;;;;;;7.47;5.10;;;-0.80;32.70;;;;;;5027031;28;46341;-63
2023/04/05 00:13:59;;;;;;;8.30;5.63;;;-0.80;33.00;;;;;;5026943;28;46503;-65
2023/04/05 00:16:26;;;;;;;9.40;5.78;;;-0.80;33.10;;;;;;5025608;28;46337;-63
2023/04/05 00:18:54;;;;;;;9.77;5.65;;;-0.80;34.40;;;;;;5025519;28;46351;-65
2023/04/05 00:21:21;;;;;;;9.10;5.90;;;-0.80;33.10;;;;;;5029859;28;47155;-65
2023/04/05 00:23:50;;;;;;;7.35;5.65;;;-0.70;33.20;;;;;;5027741;28;46431;-65
2023/04/05 00:26:15;;;;;;;8.93;5.90;;;-0.80;33.20;;;;;;5025359;28;46375;-64
2023/04/05 00:28:41;;;;;;;7.20;5.00;;;-0.80;33.20;;;;;;5028770;28;46379;-65
2023/04/05 00:31:07;;;;;;;12.00;5.90;;;-0.60;33.40;;;;;;5025685;28;47109;-66
2023/04/05 00:33:32;;;;;;;8.63;5.33;;;-0.70;33.30;;;;;;5030272;28;45815;-65
2023/04/05 00:36:14;;;;;;;8.83;5.93;;;-0.70;33.50;;;;;;5030169;28;46520;-63
2023/04/05 00:38:40;;;;;;;13.88;6.35;;;-0.70;33.60;;;;;;5027801;28;45828;-65
2023/04/05 00:41:06;;;;;;;9.32;5.85;;;-0.70;33.50;;;;;;5022722;28;46396;-63
2023/04/05 00:43:32;;;;;;;9.23;5.70;;;-0.70;33.50;;;;;;5026794;28;46422;-65
2023/04/05 00:45:59;;;;;;;7.80;5.13;;;-0.70;33.50;;;;;;5029065;28;46385;-65
2023/04/05 00:48:25;;;;;;;9.23;5.60;;;-0.60;33.60;;;;;;5027736;28;46381;-64
2023/04/05 00:50:51;;;;;;;9.10;5.82;;;-0.60;33.70;;;;;;5027571;28;46003;-66
2023/04/05 00:53:18;;;;;;;8.30;5.70;;;-0.70;33.80;;;;;;5028359;28;46445;-66
2023/04/05 00:55:48;;;;;;;10.23;5.85;;;-0.70;34.00;;;;;;5028081;28;46314;-65
2023/04/05 00:58:18;;;;;;;6.88;4.80;;;-0.70;34.10;;;;;;5026820;28;46932;-64
2023/04/05 01:01:00;;;;;;;9.57;5.72;;;-0.80;34.20;;;;;;5027859;28;47365;-64
2023/04/05 01:03:28;;;;;;;9.38;5.95;;;-0.70;34.50;;;;;;5024339;28;46451;-65
2023/04/05 01:05:59;;;;;;;14.65;6.35;;;-0.80;34.40;;;;;;5028849;28;46315;-64
2023/04/05 01:08:47;;;;;;;8.88;6.30;;;-0.80;34.40;;;;;;5028096;28;46374;-64
2023/04/05 01:11:15;;;;;;;7.53;5.68;;;-0.80;34.40;;;;;;5026157;28;47306;-66
2023/04/05 01:13:43;;;;;;;9.10;5.85;;;-0.80;34.30;;;;;;5027069;28;46323;-66
2023/04/05 01:16:10;;;;;;;9.10;6.28;;;-0.80;34.40;;;;;;5029794;28;46643;-65
2023/04/05 01:18:36;;;;;;;8.75;6.05;;;-0.80;34.40;;;;;;5027336;28;46360;-64
2023/04/05 01:21:11;;;;;;;7.88;5.57;;;-0.70;34.60;;;;;;5023250;28;46905;-65
2023/04/05 01:23:57;;;;;;;9.30;6.32;;;-0.80;34.80;;;;;;5031915;28;46485;-65
2023/04/05 01:26:47;;;;;;;12.32;7.07;;;-0.80;35.00;;;;;;5028103;28;46404;-65
2023/04/05 01:29:21;;;;;;;13.02;6.43;;;-0.80;35.00;;;;;;5025589;28;46633;-64
2023/04/05 01:31:56;;;;;;;8.45;5.53;;;-0.80;35.00;;;;;;5026121;28;46227;-65
2023/04/05 01:34:30;;;;;;;11.73;6.32;;;-0.80;35.00;;;;;;5027435;28;46405;-65
2023/04/05 01:36:59;;;;;;;10.15;6.35;;;-0.80;35.10;;;;;;5029442;28;46354;-64
2023/04/05 01:39:27;;;;;;;13.13;6.22;;;-0.80;35.10;;;;;;5027800;28;46462;-65
2023/04/05 01:42:00;;;;;;;11.75;5.45;;;-0.80;35.10;;;;;;5026997;28;46357;-64
2023/04/05 01:44:27;;;;;;;9.45;6.35;;;-0.80;35.20;;;;;;5025768;28;46626;-65
2023/04/05 01:46:52;;;;;;;10.13;6.22;;;-0.80;35.20;;;;;;5027363;28;46536;-65
2023/04/05 01:49:18;;;;;;;8.57;6.83;;;-0.80;35.30;;;;;;5027159;28;45879;-63
2023/04/05 01:51:44;;;;;;;8.80;6.00;;;-0.80;35.30;;;;;;5027122;28;47028;-66
2023/04/05 01:54:09;;;;;;;7.33;5.63;;;-0.70;35.40;;;;;;5028114;28;46320;-65
2023/04/05 01:56:35;;;;;;;10.97;6.13;;;-0.80;35.30;;;;;;5030351;28;46381;-65
2023/04/05 01:59:00;;;;;;;9.27;6.43;;;-0.80;35.40;;;;;;5029541;28;46585;-65
2023/04/05 02:01:26;;;;;;;10.20;5.90;;;-0.80;35.40;;;;;;5036561;28;46325;-66
2023/04/05 02:03:52;;;;;;;11.80;6.30;;;-0.80;35.50;;;;;;5030460;28;46276;-65
2023/04/05 02:06:17;;;;;;;10.70;6.23;;;-0.80;35.70;;;;;;5032705;28;46452;-64
2023/04/05 02:08:43;;;;;;;9.13;6.00;;;-0.90;35.90;;;;;;5029869;28;46428;-65
2023/04/05 02:11:08;;;;;;;8.57;6.30;;;-0.90;36.10;;;;;;5029411;28;46641;-65
2023/04/05 02:13:34;;;;;;;9.43;6.03;;;-1.00;36.20;;;;;;5032503;28;46278;-65
2023/04/05 02:16:00;;;;;;;10.50;6.70;;;-1.00;36.50;;;;;;5031046;28;46390;-66
2023/04/05 02:18:31;;;;;;;10.57;6.80;;;-1.00;36.70;;;;;;5030512;28;46582;-65
2023/04/05 02:21:03;;;;;;;8.85;6.35;;;-1.10;36.60;;;;;;5029737;28;46612;-65
2023/04/05 02:23:30;;;;;;;11.18;6.43;;;-1.10;36.80;;;;;;5029154;28;46271;-65
2023/04/05 02:25:56;;;;;;;8.23;5.40;;;-1.20;37.00;;;;;;5028789;28;46411;-65
2023/04/05 02:28:22;;;;;;;11.80;6.63;;;-1.20;37.30;;;;;;5029963;28;46478;-64
2023/04/05 02:30:48;;;;;;;10.80;6.43;;;-1.30;37.30;;;;;;5030530;28;47114;-63
2023/04/05 02:33:13;;;;;;;12.07;7.37;;;-1.30;37.50;;;;;;5029730;28;46428;-65
2023/04/05 02:35:39;;;;;;;14.67;5.97;;;-1.40;37.60;;;;;;5029497;28;46409;-66
2023/04/05 02:38:04;;;;;;;12.07;6.10;;;-1.40;37.60;;;;;;5028248;28;46490;-66
2023/04/05 02:40:31;;;;;;;10.27;6.33;;;-1.40;37.70;;;;;;5028914;28;47818;-64
2023/04/05 02:42:57;;;;;;;11.20;5.97;;;-1.50;37.80;;;;;;5025398;28;46408;-65
2023/04/05 02:45:22;;;;;;;9.02;6.07;;;-1.50;37.90;;;;;;5030409;28;46371;-64
2023/04/05 02:47:48;;;;;;;11.73;6.83;;;-1.60;38.00;;;;;;5030621;28;46355;-66
2023/04/05 02:50:14;;;;;;;9.83;5.60;;;-1.60;38.20;;;;;;5029622;28;47159;-65
2023/04/05 02:52:40;;;;;;;7.00;4.95;;;-1.60;38.30;;;;;;5032683;28;46413;-66
2023/04/05 02:55:06;;;;;;;10.33;6.50;;;-1.70;38.40;;;;;;5031527;28;47551;-66
2023/04/05 02:57:32;;;;;;;10.85;7.18;;;-1.70;38.60;;;;;;5028614;28;46320;-64
2023/04/05 02:59:57;;;;;;;15.90;7.30;;;-1.70;38.70;;;;;;5028822;28;46425;-64
2023/04/05 03:02:23;;;;;;;11.70;6.90;;;-1.70;38.60;;;;;;5029536;28;46505;-65
2023/04/05 03:04:52;;;;;;;10.20;6.57;;;-1.70;38.60;;;;;;5028504;28;46501;-66
2023/04/05 03:07:17;;;;;;;11.65;7.05;;;-1.80;38.50;;;;;;5029705;28;46435;-66
2023/04/05 03:09:46;;;;;;;12.40;7.00;;;-1.80;38.60;;;;;;5027454;28;46275;-67
2023/04/05 03:12:12;;;;;;;10.82;6.53;;;-1.80;38.80;;;;;;5029177;28;46611;-65
2023/04/05 03:14:38;;;;;;;12.43;7.33;;;-1.80;38.80;;;;;;5028404;28;46322;-65
2023/04/05 03:17:05;;;;;;;22.98;12.85;;;-1.90;38.90;;;;;;5023826;28;46579;-64
2023/04/05 03:19:31;;;;;;;29.55;16.73;;;-1.90;39.00;;;;;;5026825;28;46562;-66
2023/04/05 03:21:57;;;;;;;33.10;16.80;;;-1.90;40.50;;;;;;5027918;28;46130;-66
2023/04/05 03:24:23;;;;;;;22.73;11.20;;;-1.90;39.40;;;;;;5029699;28;46369;-65
2023/04/05 03:26:48;;;;;;;22.40;13.03;;;-1.90;39.20;;;;;;5029333;28;46373;-66
2023/04/05 03:29:15;;;;;;;22.47;11.93;;;-1.90;39.40;;;;;;5028219;28;46386;-66
2023/04/05 03:31:41;;;;;;;27.45;14.07;;;-1.90;39.30;;;;;;5025635;28;46321;-66
2023/04/05 03:34:07;;;;;;;23.60;13.30;;;-1.90;39.30;;;;;;5027742;28;46377;-66
2023/04/05 03:36:41;;;;;;;21.17;11.50;;;-1.90;39.30;;;;;;5027437;28;46444;-66
2023/04/05 03:39:09;;;;;;;14.80;9.20;;;-2.00;39.40;;;;;;5026065;28;47107;-65
2023/04/05 03:41:35;;;;;;;15.82;10.02;;;-2.00;39.30;;;;;;5029707;28;46276;-65
2023/04/05 03:44:01;;;;;;;21.13;10.48;;;-2.00;39.40;;;;;;5034345;28;46223;-66
2023/04/05 03:46:26;;;;;;;17.07;10.50;;;-2.10;39.40;;;;;;5031162;28;46362;-66
2023/04/05 03:48:52;;;;;;;19.40;10.53;;;-2.10;39.60;;;;;;5028330;28;46145;-65
2023/04/05 03:51:18;;;;;;;17.00;9.80;;;-2.10;39.60;;;;;;5026094;28;46408;-65
2023/04/05 03:53:44;;;;;;;15.63;9.60;;;-2.20;39.70;;;;;;5030941;28;46759;-65
2023/04/05 03:56:10;;;;;;;15.98;8.77;;;-2.20;39.90;;;;;;5031461;28;45971;-65
2023/04/05 03:58:36;;;;;;;12.17;7.73;;;-2.30;39.90;;;;;;5027571;28;46732;-65
2023/04/05 04:01:02;;;;;;;13.75;7.93;;;-2.30;40.10;;;;;;5026878;28;46581;-65
2023/04/05 04:03:29;;;;;;;8.83;5.60;;;-2.40;40.10;;;;;;5028956;28;46334;-66
2023/04/05 04:05:55;;;;;;;11.13;6.70;;;-2.50;40.30;;;;;;5027097;28;46405;-64
2023/04/05 04:08:21;;;;;;;9.60;5.90;;;-2.60;40.70;;;;;;5027405;28;46792;-66
2023/04/05 04:10:47;;;;;;;9.97;6.00;;;-2.60;40.70;;;;;;5027842;28;46463;-66
2023/04/05 04:13:13;;;;;;;11.87;6.50;;;-2.70;40.90;;;;;;5031816;28;46475;-66
2023/04/05 04:15:38;;;;;;;11.03;6.43;;;-2.70;40.90;;;;;;5028808;28;46327;-65
2023/04/05 04:18:04;;;;;;;10.23;6.93;;;-2.70;40.90;;;;;;5028586;28;46305;-65
2023/04/05 04:20:29;;;;;;;9.60;7.00;;;-2.80;40.90;;;;;;5027554;28;45930;-65
2023/04/05 04:22:57;;;;;;;9.10;6.20;;;-2.80;41.00;;;;;;5027615;28;46374;-65
2023/04/05 04:25:25;;;;;;;10.80;6.00;;;-2.70;41.00;;;;;;5031692;28;46688;-66
2023/04/05 04:27:51;;;;;;;7.60;6.25;;;-2.80;41.00;;;;;;5025827;28;47136;-66
2023/04/05 04:30:21;;;;;;;10.30;5.88;;;-2.80;41.00;;;;;;5031805;28;46831;-66
2023/04/05 04:32:50;;;;;;;10.27;6.72;;;-2.90;41.10;;;;;;5032219;28;46377;-66
2023/04/05 04:35:19;;;;;;;14.55;6.20;;;-2.90;41.30;;;;;;5030063;28;46432;-66
2023/04/05 04:37:53;;;;;;;8.13;5.80;;;-2.90;41.50;;;;;;5027315;28;46501;-66
2023/04/05 04:40:20;;;;;;;9.48;5.90;;;-3.00;41.50;;;;;;5026605;28;45998;-66
2023/04/05 04:42:46;;;;;;;11.75;7.28;;;-3.00;41.50;;;;;;5028877;28;46217;-66
2023/04/05 04:45:16;;;;;;;8.98;6.28;;;-3.00;41.50;;;;;;5030071;28;46704;-68
2023/04/05 04:47:46;;;;;;;12.10;6.80;;;-3.00;41.50;;;;;;5029745;28;46497;-67
2023/04/05 04:50:12;;;;;;;11.70;7.10;;;-3.10;41.40;;;;;;5029577;28;46307;-66
2023/04/05 04:52:39;;;;;;;14.23;7.70;;;-3.00;41.50;;;;;;5024342;28;46422;-67
2023/04/05 04:55:07;;;;;;;11.63;6.95;;;-3.00;41.50;;;;;;5033046;28;46556;-66
2023/04/05 04:57:32;;;;;;;12.75;7.13;;;-3.00;41.40;;;;;;5029629;28;46414;-66
2023/04/05 04:59:58;;;;;;;16.17;7.03;;;-3.00;41.50;;;;;;5029142;28;46420;-67
2023/04/05 05:02:25;;;;;;;12.80;7.40;;;-3.00;41.50;;;;;;5025759;28;46408;-66
2023/04/05 05:04:50;;;;;;;15.30;8.38;;;-3.00;41.50;;;;;;5027808;28;46309;-66
2023/04/05 05:07:17;;;;;;;12.03;8.20;;;-3.00;41.60;;;;;;5025931;28;46226;-66
2023/04/05 05:09:43;;;;;;;13.80;7.57;;;-3.00;41.50;;;;;;5028095;28;46175;-66
2023/04/05 05:12:08;;;;;;;16.50;8.30;;;-2.90;41.50;;;;;;5028960;28;46469;-66
2023/04/05 05:14:34;;;;;;;11.90;7.40;;;-2.90;41.50;;;;;;5027113;28;46501;-67
2023/04/05 05:17:00;;;;;;;13.27;8.73;;;-2.80;41.30;;;;;;5026033;28;45943;-66
2023/04/05 05:19:25;;;;;;;17.60;9.10;;;-2.70;41.10;;;;;;5027060;28;46323;-68
2023/04/05 05:21:52;;;;;;;16.73;8.57;;;-2.70;40.90;;;;;;5029229;28;46438;-66
2023/04/05 05:24:19;;;;;;;14.02;8.38;;;-2.60;40.80;;;;;;5035064;28;45858;-65
2023/04/05 05:26:45;;;;;;;17.95;8.07;;;-2.50;40.80;;;;;;5029503;28;47281;-67
2023/04/05 05:29:10;;;;;;;13.03;7.60;;;-2.40;40.60;;;;;;5034139;28;46272;-66
2023/04/05 05:31:36;;;;;;;25.47;9.93;;;-2.30;40.10;;;;;;5032978;28;46571;-67
2023/04/05 05:34:02;;;;;;;14.23;7.87;;;-1.70;39.90;;;;;;5029567;28;46384;-67
2023/04/05 05:36:27;;;;;;;7.77;5.27;;;-0.80;41.10;;;;;;5034948;28;46423;-66
2023/04/05 05:38:53;;;;;;;8.60;4.80;;;0.00;41.60;;;;;;5035002;28;46440;-66
2023/04/05 05:41:20;;;;;;;7.07;5.37;;;0.80;41.30;;;;;;5032393;28;46547;-65
2023/04/05 05:43:46;;;;;;;7.07;4.85;;;1.40;41.10;;;;;;5030048;28;46581;-68
2023/04/05 05:46:11;;;;;;;7.80;4.33;;;2.00;41.10;;;;;;5035838;28;46433;-70
2023/04/05 05:48:37;;;;;;;6.83;4.73;;;2.50;40.90;;;;;;5035210;28;46422;-69
2023/04/05 05:51:08;;;;;;;6.40;4.63;;;3.10;40.70;;;;;;5032088;28;46365;-69
2023/04/05 05:53:35;;;;;;;10.25;6.00;;;3.60;40.20;;;;;;5033991;28;46463;-69
2023/04/05 05:56:01;;;;;;;10.50;5.90;;;4.10;40.20;;;;;;5031572;28;46418;-69
2023/04/05 05:58:26;;;;;;;8.07;5.03;;;4.40;40.30;;;;;;5028069;28;46423;-69
2023/04/05 06:00:55;;;;;;;12.33;5.43;;;4.60;39.70;;;;;;5031038;28;46437;-68
2023/04/05 06:03:24;;;;;;;9.93;4.67;;;4.80;38.90;;;;;;5035601;28;46244;-70
2023/04/05 06:05:58;;;;;;;9.80;5.17;;;4.90;37.10;;;;;;5025161;28;47168;-71
2023/04/05 06:08:24;;;;;;;9.57;5.73;;;4.70;35.50;;;;;;5029919;28;46434;-69
2023/04/05 06:10:51;;;;;;;11.93;6.80;;;4.50;34.60;;;;;;5033437;28;46364;-70
2023/04/05 06:13:16;;;;;;;9.90;7.40;;;3.90;34.40;;;;;;5033123;28;46239;-69
2023/04/05 06:15:43;;;;;;;10.70;7.03;;;3.50;35.30;;;;;;5029625;28;46453;-69
2023/04/05 06:18:09;;;;;;;10.15;6.75;;;2.90;36.40;;;;;;5030843;28;46360;-69
2023/04/05 06:20:39;;;;;;;11.60;5.73;;;2.60;37.70;;;;;;5030384;28;46560;-69
2023/04/05 06:23:11;;;;;;;12.00;5.10;;;2.80;37.70;;;;;;5030210;28;45793;-67
2023/04/05 06:25:37;;;;;;;8.20;4.70;;;3.50;36.10;;;;;;5032417;28;46472;-67
2023/04/05 06:28:04;;;;;;;12.23;5.10;;;3.60;32.70;;;;;;5029529;28;46429;-68
2023/04/05 06:30:30;;;;;;;7.57;5.13;;;3.00;33.40;;;;;;5029994;28;46428;-66
2023/04/05 06:32:56;;;;;;;8.90;5.03;;;2.80;34.40;;;;;;5024954;28;45942;-67
2023/04/05 06:35:22;;;;;;;11.50;5.77;;;2.50;32.90;;;;;;5026715;28;46327;-67
2023/04/05 06:37:48;;;;;;;7.85;5.80;;;2.40;32.80;;;;;;5028754;28;46479;-66
2023/04/05 06:40:15;;;;;;;13.90;5.67;;;2.20;32.70;;;;;;5032261;28;46635;-65
2023/04/05 06:42:41;;;;;;;10.38;5.85;;;2.20;32.70;;;;;;5031894;28;46610;-65
2023/04/05 06:45:07;;;;;;;14.50;5.38;;;2.10;32.70;;;;;;5029486;28;46604;-66
2023/04/05 06:47:38;;;;;;;10.57;5.20;;;2.20;32.70;;;;;;5028025;28;45831;-67
2023/04/05 06:50:05;;;;;;;11.70;5.80;;;2.30;32.80;;;;;;5030137;28;46849;-68
2023/04/05 06:52:32;;;;;;;11.88;5.22;;;2.30;32.80;;;;;;5032678;28;46440;-65
2023/04/05 06:54:58;;;;;;;7.95;5.82;;;2.40;32.80;;;;;;5027232;28;47223;-65
2023/04/05 06:57:23;;;;;;;8.57;5.77;;;2.40;32.80;;;;;;5026426;28;46568;-66
2023/04/05 06:59:51;;;;;;;9.00;4.70;;;2.50;32.80;;;;;;5027694;28;46645;-66
2023/04/05 07:02:17;;;;;;;9.38;5.57;;;2.50;32.60;;;;;;5028834;28;46414;-65
2023/04/05 07:04:43;;;;;;;15.43;5.80;;;2.80;32.40;;;;;;5029554;28;46346;-67
2023/04/05 07:07:08;;;;;;;17.10;5.53;;;2.90;32.10;;;;;;5028270;28;46649;-67
2023/04/05 07:09:35;;;;;;;9.93;5.40;;;3.10;31.80;;;;;;5033198;28;46394;-67
2023/04/05 07:12:02;;;;;;;8.93;5.07;;;3.10;31.60;;;;;;5031641;28;46402;-65
2023/04/05 07:14:36;;;;;;;11.20;4.82;;;3.10;31.60;;;;;;5029973;28;48363;-69
2023/04/05 07:17:05;;;;;;;10.18;4.65;;;3.30;31.20;;;;;;5027513;28;46402;-67
2023/04/05 07:19:32;;;;;;;9.05;5.00;;;3.40;31.10;;;;;;5030158;28;46428;-67
2023/04/05 07:21:59;;;;;;;9.53;5.23;;;3.40;30.50;;;;;;5030733;28;46765;-66
2023/04/05 07:24:24;;;;;;;10.27;5.72;;;3.50;30.60;;;;;;5029042;28;48194;-66
2023/04/05 07:26:51;;;;;;;10.07;6.07;;;3.70;30.40;;;;;;5029397;28;46449;-66
2023/04/05 07:29:16;;;;;;;10.85;5.55;;;3.80;30.10;;;;;;5032402;28;46541;-66
2023/04/05 07:31:42;;;;;;;12.43;5.97;;;3.90;29.80;;;;;;5030639;28;46303;-64
2023/04/05 07:34:08;;;;;;;10.40;6.40;;;3.90;29.60;;;;;;5030338;28;47109;-67
2023/04/05 07:36:34;;;;;;;9.27;5.60;;;3.80;29.30;;;;;;5028883;28;46406;-67
2023/04/05 07:39:00;;;;;;;12.80;6.93;;;3.90;29.70;;;;;;5028119;28;46453;-67
2023/04/05 07:41:30;;;;;;;8.27;5.50;;;3.80;29.70;;;;;;5032910;28;46801;-65
2023/04/05 07:43:56;;;;;;;9.70;5.43;;;3.90;29.70;;;;;;5028207;28;46453;-64
2023/04/05 07:46:22;;;;;;;14.43;6.23;;;4.00;29.70;;;;;;5030894;28;46484;-66
2023/04/05 07:48:47;;;;;;;11.30;5.43;;;4.00;29.20;;;;;;5028500;28;46712;-66
2023/04/05 07:51:13;;;;;;;14.43;6.30;;;4.10;29.20;;;;;;5025900;28;46446;-66
2023/04/05 07:53:40;;;;;;;9.37;5.97;;;4.20;28.90;;;;;;5028972;28;47174;-68
2023/04/05 07:56:06;;;;;;;12.50;5.85;;;4.10;28.80;;;;;;5029469;28;46702;-66
2023/04/05 07:58:33;;;;;;;11.77;6.03;;;4.10;29.10;;;;;;5029999;28;46461;-65
2023/04/05 08:01:03;;;;;;;11.40;5.43;;;4.10;29.20;;;;;;5029080;28;46390;-65
2023/04/05 08:03:29;;;;;;;10.40;5.60;;;4.20;29.10;;;;;;5027269;28;46486;-65
2023/04/05 08:05:55;;;;;;;8.27;5.57;;;4.30;29.00;;;;;;5031228;28;46496;-66
2023/04/05 08:08:22;;;;;;;9.70;6.03;;;4.30;29.20;;;;;;5028861;28;46442;-66
2023/04/05 08:10:48;;;;;;;11.43;5.60;;;4.50;29.00;;;;;;5028011;28;46422;-66
2023/04/05 08:13:13;;;;;;;14.43;6.60;;;4.50;28.70;;;;;;5028237;28;46437;-65
2023/04/05 08:15:40;;;;;;;14.33;5.80;;;4.60;28.70;;;;;;5029183;28;45850;-64
2023/04/05 08:18:05;;;;;;;15.03;5.90;;;4.80;28.50;;;;;;5028339;28;46422;-64
2023/04/05 08:20:31;;;;;;;15.40;6.60;;;4.70;28.50;;;;;;5031885;28;45902;-70
2023/04/05 08:22:57;;;;;;;8.43;5.63;;;4.40;28.60;;;;;;5028727;28;46544;-67
2023/04/05 08:25:22;;;;;;;9.90;5.67;;;4.60;28.50;;;;;;5032454;28;46349;-65
2023/04/05 08:27:48;;;;;;;14.50;6.17;;;4.60;28.10;;;;;;5031605;28;46800;-64
2023/04/05 08:30:15;;;;;;;15.73;5.67;;;4.70;27.80;;;;;;5030713;28;46528;-71
2023/04/05 08:32:40;;;;;;;6.50;4.70;;;4.90;27.20;;;;;;5028182;28;46457;-70
2023/04/05 08:35:06;;;;;;;9.43;5.00;;;4.90;26.10;;;;;;5029951;28;46652;-68
2023/04/05 08:37:35;;;;;;;17.87;5.67;;;5.00;25.60;;;;;;5030650;28;45880;-69
2023/04/05 08:40:01;;;;;;;10.80;5.10;;;5.10;25.60;;;;;;5031609;28;45902;-71
2023/04/05 08:42:41;;;;;;;7.20;4.10;;;5.20;25.20;;;;;;5029896;28;46499;-70
2023/04/05 08:45:09;;;;;;;8.13;5.10;;;5.20;24.90;;;;;;5029646;28;46437;-66
2023/04/05 08:47:36;;;;;;;7.93;5.20;;;5.30;24.20;;;;;;5030019;28;46342;-66
2023/04/05 08:50:03;;;;;;;9.17;5.27;;;5.40;23.80;;;;;;5027583;28;46385;-66
2023/04/05 08:52:30;;;;;;;8.90;5.60;;;5.40;23.80;;;;;;5029663;28;47053;-67
2023/04/05 08:54:56;;;;;;;10.50;5.13;;;5.40;23.80;;;;;;5026911;28;46452;-67
2023/04/05 08:57:26;;;;;;;12.33;5.10;;;5.50;23.30;;;;;;5029773;28;46399;-70
2023/04/05 08:59:54;;;;;;;6.20;3.93;;;5.50;23.90;;;;;;5028908;28;45827;-69
2023/04/05 09:02:23;;;;;;;10.13;4.93;;;5.50;22.90;;;;;;5027152;28;47147;-69
2023/04/05 09:04:50;;;;;;;6.00;4.50;;;5.60;22.20;;;;;;5026914;28;46449;-73
2023/04/05 09:07:16;;;;;;;6.20;4.43;;;5.60;21.60;;;;;;5030508;28;45870;-73
2023/04/05 09:09:48;;;;;;;8.60;4.67;;;5.60;21.80;;;;;;5031523;28;46625;-68
2023/04/05 09:12:14;;;;;;;7.53;4.43;;;5.70;20.90;;;;;;5028633;28;47133;-70
2023/04/05 09:14:40;;;;;;;9.03;5.10;;;5.90;20.70;;;;;;5025147;28;46327;-67
2023/04/05 09:17:06;;;;;;;8.10;4.50;;;6.20;20.70;;;;;;5028665;28;46345;-66
2023/04/05 09:19:32;;;;;;;9.13;4.30;;;6.50;20.30;;;;;;5030589;28;46656;-67
2023/04/05 09:22:01;;;;;;;5.70;3.57;;;6.60;19.00;;;;;;5024053;28;46460;-69
2023/04/05 09:24:41;;;;;;;6.80;4.30;;;6.70;17.50;;;;;;5025017;28;46473;-68
2023/04/05 09:27:11;;;;;;;9.93;4.30;;;6.80;18.10;;;;;;5030635;28;45812;-68
2023/04/05 09:29:38;;;;;;;9.87;4.53;;;7.00;17.80;;;;;;5028400;28;46515;-69
2023/04/05 09:32:05;;;;;;;9.90;4.30;;;7.30;16.90;;;;;;5029833;28;47170;-70
2023/04/05 09:34:32;;;;;;;7.90;4.23;;;7.40;14.40;;;;;;5026421;28;45847;-71
2023/04/05 09:36:58;;;;;;;8.83;4.50;;;7.50;14.40;;;;;;5025840;28;47363;-67
2023/04/05 09:39:31;;;;;;;22.10;4.73;;;7.60;14.50;;;;;;5023422;28;46398;-71
2023/04/05 09:42:04;;;;;;;6.10;3.77;;;7.70;15.00;;;;;;5031742;28;46373;-71
2023/04/05 09:44:51;;;;;;;5.47;3.77;;;7.90;15.30;;;;;;5026535;28;46602;-72
2023/04/05 09:47:18;;;;;;;7.17;4.30;;;8.00;14.70;;;;;;5024161;28;46413;-68
2023/04/05 09:49:43;;;;;;;6.60;3.87;;;7.90;13.60;;;;;;5025626;28;46422;-68
2023/04/05 09:52:32;;;;;;;7.93;4.00;;;7.70;13.30;;;;;;5025543;28;46805;-68
2023/04/05 09:55:03;;;;;;;8.10;4.10;;;7.60;12.30;;;;;;5026685;28;46583;-71
2023/04/05 09:57:35;;;;;;;7.23;4.20;;;7.80;13.20;;;;;;5027509;28;46398;-70
2023/04/05 10:00:03;;;;;;;5.83;3.80;;;7.80;13.70;;;;;;5028105;28;46249;-70
2023/04/05 10:02:36;;;;;;;7.20;3.93;;;8.10;13.40;;;;;;5029573;28;47649;-69
2023/04/05 10:05:06;;;;;;;6.27;4.00;;;8.40;13.00;;;;;;5029891;28;46608;-69
2023/04/05 10:07:32;;;;;;;6.27;4.00;;;8.40;12.80;;;;;;5027528;28;46963;-69
2023/04/05 10:09:58;;;;;;;6.77;3.67;;;8.30;11.90;;;;;;5028289;28;46510;-65
2023/04/05 10:12:25;;;;;;;7.57;4.10;;;7.90;11.80;;;;;;5028401;28;46449;-69
2023/04/05 10:14:51;;;;;;;7.23;3.83;;;7.60;13.10;;;;;;5033036;28;45845;-70
2023/04/05 10:17:28;;;;;;;7.03;3.80;;;8.00;13.00;;;;;;5030200;28;46343;-71
2023/04/05 10:19:58;;;;;;;5.73;4.30;;;8.10;11.60;;;;;;5029277;28;46414;-69
2023/04/05 10:22:51;;;;;;;8.07;3.83;;;7.80;11.90;;;;;;5032758;28;46576;-68
2023/04/05 10:25:38;;;;;;;7.60;3.97;;;7.90;11.80;;;;;;5028552;28;46574;-69
2023/04/05 10:28:07;;;;;;;5.30;4.00;;;7.80;12.60;;;;;;5027515;28;46441;-68
2023/04/05 10:30:41;;;;;;;6.70;4.10;;;7.90;12.10;;;;;;5029910;28;46552;-72
2023/04/05 10:33:11;;;;;;;7.43;3.60;;;8.00;11.30;;;;;;5029782;28;46335;-70
2023/04/05 10:35:55;;;;;;;7.73;4.07;;;8.00;11.30;;;;;;5034587;28;46674;-70
2023/04/05 10:38:26;;;;;;;6.43;3.83;;;8.10;11.60;;;;;;5027697;28;45841;-69
2023/04/05 10:41:00;;;;;;;5.50;3.60;;;8.10;11.60;;;;;;5034087;28;46420;-68
2023/04/05 10:43:27;;;;;;;6.43;3.73;;;7.90;11.50;;;;;;5029255;28;46632;-67
2023/04/05 10:45:56;;;;;;;6.63;4.13;;;7.70;12.30;;;;;;5030139;28;46454;-69
2023/04/05 10:48:31;;;;;;;5.00;3.63;;;7.50;11.60;;;;;;5029941;28;46454;-71
2023/04/05 10:50:57;;;;;;;8.53;4.03;;;7.40;11.90;;;;;;5029796;28;46392;-67
2023/04/05 10:53:25;;;;;;;7.93;4.43;;;7.50;12.00;;;;;;5026094;28;46382;-68
2023/04/05 10:55:52;;;;;;;9.63;4.00;;;7.70;11.60;;;;;;5033556;28;46449;-67
2023/04/05 10:58:19;;;;;;;8.67;4.10;;;7.90;11.80;;;;;;5028407;28;45898;-69
2023/04/05 11:00:46;;;;;;;6.87;4.10;;;8.10;11.10;;;;;;5030207;28;45924;-68
2023/04/05 11:03:46;;;;;;;6.70;4.33;;;8.30;11.30;;;;;;5032392;28;46575;-69
2023/04/05 11:06:24;;;;;;;8.37;5.20;;;8.00;11.20;;;;;;5031207;28;46503;-67
2023/04/05 11:09:14;;;;;;;9.70;3.37;;;8.00;11.20;;;;;;5034453;28;46478;-67
2023/04/05 11:11:51;;;;;;;7.53;3.40;;;7.90;11.40;;;;;;5032434;28;46509;-68
2023/04/05 11:14:34;;;;;;;6.97;4.00;;;7.70;9.80;;;;;;5029953;28;47314;-65
2023/04/05 11:17:01;;;;;;;6.07;3.80;;;7.80;10.30;;;;;;5030759;28;46385;-68
2023/04/05 11:19:42;;;;;;;5.80;3.73;;;8.20;10.70;;;;;;5026909;28;46469;-68
2023/04/05 11:22:11;;;;;;;6.10;3.87;;;8.40;10.20;;;;;;5028215;28;46409;-68
2023/04/05 11:24:57;;;;;;;5.77;3.87;;;8.50;10.50;;;;;;5029968;28;47114;-68
2023/04/05 11:27:30;;;;;;;7.50;4.33;;;8.30;10.60;;;;;;5028114;28;46378;-68
2023/04/05 11:29:58;;;;;;;11.80;4.50;;;8.00;10.90;;;;;;5029538;28;45837;-68
2023/04/05 11:32:38;;;;;;;8.07;3.63;;;7.90;11.30;;;;;;5036546;28;46477;-69
2023/04/05 11:35:06;;;;;;;10.13;4.30;;;8.00;11.40;;;;;;5031438;28;46396;-68
2023/04/05 11:38:00;;;;;;;7.20;4.60;;;8.10;11.50;;;;;;5028155;28;46370;-67
2023/04/05 11:40:30;;;;;;;8.43;4.23;;;8.20;11.30;;;;;;5029215;28;46406;-67
2023/04/05 11:42:59;;;;;;;8.37;4.30;;;8.20;11.60;;;;;;5026960;28;46592;-68
2023/04/05 11:45:25;;;;;;;6.50;4.50;;;8.30;11.10;;;;;;5030196;28;47061;-67
2023/04/05 11:47:51;;;;;;;6.90;4.63;;;8.30;10.70;;;;;;5032323;28;46441;-66
2023/04/05 11:50:16;;;;;;;7.30;4.67;;;8.10;11.10;;;;;;5029040;28;46477;-65
2023/04/05 11:52:42;;;;;;;10.33;5.07;;;7.80;11.10;;;;;;5026235;28;46760;-67
2023/04/05 11:55:07;;;;;;;5.93;4.50;;;7.70;11.20;;;;;;5029013;28;47106;-66
2023/04/05 11:57:36;;;;;;;7.23;3.90;;;7.60;11.30;;;;;;5024676;28;46451;-68
2023/04/05 12:00:02;;;;;;;7.43;4.20;;;7.50;11.20;;;;;;5022982;28;45853;-68
2023/04/05 12:02:33;;;;;;;7.70;4.70;;;7.30;11.70;;;;;;5026457;28;46903;-69
2023/04/05 12:04:59;;;;;;;7.30;4.10;;;7.20;11.30;;;;;;5027152;28;46410;-68
2023/04/05 12:07:28;;;;;;;10.80;4.23;;;7.20;11.60;;;;;;5025809;28;47339;-67
2023/04/05 12:10:14;;;;;;;16.20;4.63;;;7.50;11.60;;;;;;5027628;28;46551;-68
2023/04/05 12:12:42;;;;;;;6.03;3.80;;;7.70;11.30;;;;;;5027947;28;45755;-68
2023/04/05 12:15:12;;;;;;;6.90;4.23;;;7.70;11.30;;;;;;5028181;28;46792;-69
2023/04/05 12:17:44;;;;;;;7.60;4.00;;;8.00;11.10;;;;;;5026369;28;45834;-68
2023/04/05 12:20:11;;;;;;;7.57;4.17;;;8.20;10.90;;;;;;5032562;28;45851;-69
2023/04/05 12:22:38;;;;;;;6.80;4.37;;;8.20;10.90;;;;;;5029628;28;46504;-68
2023/04/05 12:25:04;;;;;;;8.50;4.40;;;8.20;11.30;;;;;;5028828;28;46615;-67
2023/04/05 12:27:30;;;;;;;5.50;3.70;;;8.30;11.10;;;;;;5029895;28;47022;-67
2023/04/05 12:30:16;;;;;;;8.53;4.00;;;8.30;11.20;;;;;;5031409;28;45831;-69
2023/04/05 12:32:51;;;;;;;10.47;4.03;;;8.20;11.00;;;;;;5028827;28;46330;-67
2023/04/05 12:35:19;;;;;;;6.37;3.80;;;8.20;11.10;;;;;;5025137;28;47600;-66
2023/04/05 12:37:45;;;;;;;7.63;4.33;;;8.30;11.50;;;;;;5021932;28;45921;-66
2023/04/05 12:40:11;;;;;;;8.53;4.37;;;8.40;11.00;;;;;;5028484;28;46474;-67
2023/04/05 12:42:38;;;;;;;10.60;4.60;;;8.20;11.20;;;;;;5029689;28;46485;-68
2023/04/05 12:45:14;;;;;;;6.07;3.67;;;8.10;11.20;;;;;;5028795;28;46339;-69
2023/04/05 12:47:51;;;;;;;8.77;4.37;;;7.90;10.60;;;;;;5027872;28;46508;-67
2023/04/05 12:50:18;;;;;;;8.00;4.00;;;7.60;10.40;;;;;;5030301;28;46289;-66
2023/04/05 12:52:56;;;;;;;7.63;4.37;;;7.50;11.10;;;;;;5030618;28;45858;-72
2023/04/05 12:55:23;;;;;;;7.30;4.40;;;7.80;11.30;;;;;;5028453;28;46501;-64